createdAt,value
2018-11-14T00:02:13.160Z,9.20
2018-11-14T00:04:41.139Z,9.22
2018-11-14T00:07:09.131Z,9.18
2018-11-14T00:09:37.759Z,9.17
2018-11-14T00:12:06.381Z,9.15
2018-11-14T00:14:34.311Z,9.15
2018-11-14T00:17:02.303Z,9.15
2018-11-14T00:19:30.317Z,9.14
2018-11-14T00:21:58.235Z,9.12
2018-11-14T00:24:26.189Z,9.14
2018-11-14T00:26:54.121Z,9.11
2018-11-14T00:29:22.182Z,9.05
2018-11-14T00:31:50.123Z,9.02
2018-11-14T00:34:18.071Z,9.00
2018-11-14T00:36:46.040Z,8.97
2018-11-14T00:39:13.986Z,8.94
2018-11-14T00:41:42.432Z,8.92
2018-11-14T00:44:10.368Z,8.89
2018-11-14T00:46:38.800Z,8.88
2018-11-14T00:49:06.707Z,8.90
2018-11-14T00:51:34.647Z,8.90
2018-11-14T00:54:02.575Z,8.93
2018-11-14T00:56:30.564Z,8.93
2018-11-14T00:58:58.475Z,8.85
2018-11-14T01:01:26.481Z,8.88
2018-11-14T01:03:54.519Z,8.82
2018-11-14T01:06:22.436Z,8.86
2018-11-14T01:08:50.367Z,8.90
2018-11-14T01:11:18.315Z,8.87
2018-11-14T01:13:46.245Z,8.89
2018-11-14T01:16:14.195Z,8.86
2018-11-14T01:18:42.118Z,8.89
2018-11-14T01:21:10.055Z,8.86
2018-11-14T01:23:37.999Z,8.81
2018-11-14T01:26:05.980Z,8.84
2018-11-14T01:28:33.932Z,8.88
2018-11-14T01:31:01.897Z,8.91
2018-11-14T01:33:29.840Z,8.85
2018-11-14T01:35:58.114Z,8.76
2018-11-14T01:38:25.773Z,8.73
2018-11-14T01:40:53.712Z,8.73
2018-11-14T01:43:21.639Z,8.70
2018-11-14T01:45:49.583Z,8.71
2018-11-14T01:48:17.533Z,8.74
2018-11-14T01:50:45.531Z,8.71
2018-11-14T01:53:13.477Z,8.66
2018-11-14T01:55:41.396Z,8.65
2018-11-14T01:58:09.355Z,8.67
2018-11-14T02:00:37.291Z,8.60
2018-11-14T02:03:05.608Z,8.59
2018-11-14T02:05:33.551Z,8.60
2018-11-14T02:08:01.516Z,8.60
2018-11-14T02:10:29.472Z,8.58
2018-11-14T02:12:57.427Z,8.61
2018-11-14T02:15:25.379Z,8.60
2018-11-14T02:17:53.672Z,8.62
2018-11-14T02:20:21.642Z,8.65
2018-11-14T02:22:49.646Z,8.65
2018-11-14T02:25:17.919Z,8.65
2018-11-14T02:27:45.867Z,8.64
2018-11-14T02:30:17.836Z,8.67
2018-11-14T02:32:45.842Z,8.67
2018-11-14T02:35:13.736Z,8.65
2018-11-14T02:37:42.767Z,8.68
2018-11-14T02:40:13.092Z,8.76
2018-11-14T02:42:41.267Z,8.68
2018-11-14T02:45:09.621Z,8.69
2018-11-14T02:47:37.601Z,8.67
2018-11-14T02:50:06.349Z,8.70
2018-11-14T02:52:34.304Z,8.72
2018-11-14T02:55:02.253Z,8.71
2018-11-14T02:57:30.200Z,8.76
2018-11-14T02:59:58.178Z,8.69
2018-11-14T03:02:26.107Z,8.69
2018-11-14T03:04:54.223Z,8.73
2018-11-14T03:07:22.152Z,8.83
2018-11-14T03:09:50.108Z,8.80
2018-11-14T03:12:18.090Z,8.75
2018-11-14T03:14:46.041Z,8.68
2018-11-14T03:17:14.136Z,8.72
2018-11-14T03:19:42.190Z,8.81
2018-11-14T03:22:10.138Z,8.71
2018-11-14T03:24:38.084Z,8.69
2018-11-14T03:27:06.295Z,8.57
2018-11-14T03:29:34.264Z,8.48
2018-11-14T03:32:02.476Z,8.47
2018-11-14T03:34:30.448Z,8.44
2018-11-14T03:36:58.436Z,8.45
2018-11-14T03:39:26.416Z,8.44
2018-11-14T03:41:54.351Z,8.39
2018-11-14T03:44:22.310Z,8.35
2018-11-14T03:46:50.284Z,8.39
2018-11-14T03:49:18.244Z,8.43
2018-11-14T03:51:46.222Z,8.33
2018-11-14T03:54:14.219Z,8.35
2018-11-14T03:56:42.204Z,8.27
2018-11-14T03:59:10.209Z,8.19
2018-11-14T04:01:38.172Z,8.26
2018-11-14T04:04:06.327Z,8.26
2018-11-14T04:06:34.322Z,8.33
2018-11-14T04:09:02.350Z,8.35
2018-11-14T04:11:30.291Z,8.34
2018-11-14T04:13:58.269Z,8.33
2018-11-14T04:16:26.218Z,8.30
2018-11-14T04:18:54.204Z,8.27
2018-11-14T04:21:22.209Z,8.24
2018-11-14T04:23:50.912Z,8.20
2018-11-14T04:26:18.984Z,8.23
2018-11-14T04:28:47.492Z,8.25
2018-11-14T04:31:15.752Z,8.28
2018-11-14T04:33:43.928Z,8.25
2018-11-14T04:36:11.884Z,8.25
2018-11-14T04:38:39.856Z,8.25
2018-11-14T04:41:07.784Z,8.18
2018-11-14T04:43:35.717Z,8.18
2018-11-14T04:46:03.660Z,8.20
2018-11-14T04:48:31.640Z,8.20
2018-11-14T04:50:59.580Z,8.15
2018-11-14T04:53:27.527Z,8.24
2018-11-14T04:55:55.460Z,8.21
2018-11-14T04:58:23.411Z,8.20
2018-11-14T05:00:51.368Z,8.23
2018-11-14T05:03:19.307Z,8.26
2018-11-14T05:05:47.241Z,8.20
2018-11-14T05:08:15.235Z,8.19
2018-11-14T05:10:43.231Z,8.18
2018-11-14T05:13:11.227Z,8.13
2018-11-14T05:15:39.141Z,8.05
2018-11-14T05:18:07.095Z,8.08
2018-11-14T05:20:35.043Z,8.06
2018-11-14T05:23:03.009Z,8.08
2018-11-14T05:25:30.946Z,7.89
2018-11-14T05:27:58.935Z,8.00
2018-11-14T05:30:26.923Z,7.93
2018-11-14T05:32:54.893Z,7.90
2018-11-14T05:35:22.875Z,7.93
2018-11-14T05:37:50.956Z,7.89
2018-11-14T05:40:20.035Z,7.85
2018-11-14T05:42:48.581Z,7.87
2018-11-14T05:45:18.807Z,7.89
2018-11-14T05:47:46.759Z,7.89
2018-11-14T05:50:15.943Z,7.84
2018-11-14T05:52:43.896Z,7.76
2018-11-14T05:55:12.388Z,7.81
2018-11-14T05:57:40.356Z,7.72
2018-11-14T06:00:17.247Z,7.73
2018-11-14T06:02:45.836Z,7.70
2018-11-14T06:05:13.784Z,7.67
2018-11-14T06:07:41.771Z,7.65
2018-11-14T06:10:11.352Z,7.65
2018-11-14T06:12:39.567Z,7.67
2018-11-14T06:15:09.763Z,7.68
2018-11-14T06:17:37.668Z,7.64
2018-11-14T06:20:06.291Z,7.70
2018-11-14T06:22:34.223Z,7.64
2018-11-14T06:25:17.916Z,7.57
2018-11-14T06:27:45.867Z,7.51
2018-11-14T06:30:13.820Z,7.48
2018-11-14T06:32:41.780Z,7.45
2018-11-14T06:35:09.720Z,7.46
2018-11-14T06:37:37.761Z,7.47
2018-11-14T06:40:07.464Z,7.51
2018-11-14T06:42:35.670Z,7.44
2018-11-14T06:45:03.776Z,7.48
2018-11-14T06:47:31.808Z,7.40
2018-11-14T06:49:59.769Z,7.41
2018-11-14T06:52:27.729Z,7.40
2018-11-14T06:54:55.871Z,7.40
2018-11-14T06:57:23.852Z,7.40
2018-11-14T06:59:52.175Z,7.43
2018-11-14T07:02:20.183Z,7.45
2018-11-14T07:04:48.159Z,7.47
2018-11-14T07:07:16.107Z,7.48
2018-11-14T07:09:44.080Z,7.57
2018-11-14T07:12:12.077Z,7.55
2018-11-14T07:14:39.996Z,7.64
2018-11-14T07:17:07.936Z,7.71
2018-11-14T07:19:35.870Z,7.73
2018-11-14T07:22:03.799Z,7.70
2018-11-14T07:24:31.767Z,7.75
2018-11-14T07:26:59.685Z,7.82
2018-11-14T07:29:27.652Z,8.01
2018-11-14T07:31:55.883Z,8.00
2018-11-14T07:34:23.780Z,8.03
2018-11-14T07:36:51.714Z,8.04
2018-11-14T07:39:19.682Z,8.06
2018-11-14T07:41:47.606Z,8.06
2018-11-14T07:44:15.552Z,8.14
2018-11-14T07:46:43.544Z,8.22
2018-11-14T07:49:11.517Z,8.22
2018-11-14T07:51:39.441Z,8.36
2018-11-14T07:54:07.415Z,8.44
2018-11-14T07:56:35.351Z,8.56
2018-11-14T07:59:03.281Z,8.63
2018-11-14T08:01:31.219Z,8.73
2018-11-14T08:03:59.158Z,8.84
2018-11-14T08:06:27.108Z,8.99
2018-11-14T08:08:55.052Z,9.06
2018-11-14T08:11:22.979Z,9.12
2018-11-14T08:13:50.915Z,9.05
2018-11-14T08:16:18.863Z,9.23
2018-11-14T08:18:46.843Z,9.27
2018-11-14T08:21:14.779Z,9.25
2018-11-14T08:23:42.787Z,9.27
2018-11-14T08:26:10.720Z,9.41
2018-11-14T08:28:38.649Z,9.64
2018-11-14T08:31:06.635Z,9.74
2018-11-14T08:33:34.559Z,9.89
2018-11-14T08:36:02.502Z,9.96
2018-11-14T08:38:30.444Z,10.00
2018-11-14T08:40:58.428Z,10.07
2018-11-14T08:43:26.351Z,10.08
2018-11-14T08:45:54.307Z,10.13
2018-11-14T08:48:22.241Z,10.17
2018-11-14T08:50:50.141Z,10.23
2018-11-14T08:53:18.060Z,10.36
2018-11-14T08:55:45.990Z,10.44
2018-11-14T08:58:14.112Z,10.62
2018-11-14T09:00:42.039Z,10.72
2018-11-14T09:03:11.483Z,10.72
2018-11-14T09:05:39.376Z,10.79
2018-11-14T09:08:07.315Z,10.83
2018-11-14T09:10:35.247Z,11.02
2018-11-14T09:13:03.188Z,11.24
2018-11-14T09:15:31.076Z,11.67
2018-11-14T09:17:58.994Z,11.79
2018-11-14T09:20:27.992Z,11.89
2018-11-14T09:22:55.931Z,11.67
2018-11-14T09:25:27.369Z,11.73
2018-11-14T09:27:55.322Z,11.75
2018-11-14T09:30:24.251Z,11.84
2018-11-14T09:32:52.222Z,11.94
2018-11-14T09:35:21.167Z,12.14
2018-11-14T09:37:49.096Z,12.29
2018-11-14T09:40:18.383Z,12.06
2018-11-14T09:42:46.368Z,12.25
2018-11-14T09:45:19.631Z,12.47
2018-11-14T09:47:47.551Z,12.29
2018-11-14T09:50:17.015Z,12.39
2018-11-14T09:52:46.423Z,12.56
2018-11-14T09:55:14.500Z,12.54
2018-11-14T09:57:43.059Z,12.66
2018-11-14T10:00:13.915Z,12.94
2018-11-14T10:02:42.374Z,13.12
2018-11-14T10:05:12.712Z,13.42
2018-11-14T10:07:40.802Z,13.74
2018-11-14T10:10:10.196Z,14.06
2018-11-14T10:12:38.246Z,14.13
2018-11-14T10:15:08.243Z,14.40
2018-11-14T10:17:36.223Z,14.29
2018-11-14T10:20:04.484Z,14.27
2018-11-14T10:22:32.376Z,14.21
2018-11-14T10:25:00.334Z,14.29
2018-11-14T10:27:28.210Z,14.86
2018-11-14T10:29:56.109Z,14.98
2018-11-14T10:32:24.007Z,15.21
2018-11-14T10:34:51.953Z,15.54
2018-11-14T10:37:19.876Z,16.29
2018-11-14T10:39:47.777Z,16.75
2018-11-14T10:42:15.712Z,16.89
2018-11-14T10:44:43.735Z,17.02
2018-11-14T10:47:11.656Z,17.30
2018-11-14T10:49:39.584Z,17.62
2018-11-14T10:52:07.512Z,17.30
2018-11-14T10:54:35.420Z,17.55
2018-11-14T10:57:03.340Z,18.11
2018-11-14T10:59:31.243Z,18.16
2018-11-14T11:02:04.563Z,17.39
2018-11-14T11:04:37.759Z,16.51
2018-11-14T11:07:11.214Z,16.33
2018-11-14T11:09:44.510Z,16.34
2018-11-14T11:12:17.872Z,16.24
2018-11-14T11:14:51.230Z,15.71
2018-11-14T11:17:25.391Z,15.63
2018-11-14T11:19:53.519Z,16.33
2018-11-14T11:22:21.451Z,16.40
2018-11-14T11:24:49.488Z,16.60
2018-11-14T11:27:17.388Z,15.96
2018-11-14T11:29:45.284Z,15.72
2018-11-14T11:32:13.305Z,15.85
2018-11-14T11:34:41.101Z,15.35
2018-11-14T11:37:09.019Z,15.19
2018-11-14T11:39:36.919Z,15.03
2018-11-14T11:42:04.919Z,15.47
2018-11-14T11:44:33.033Z,16.02
2018-11-14T11:47:00.807Z,16.48
2018-11-14T11:49:28.768Z,16.06
2018-11-14T11:51:56.668Z,16.13
2018-11-14T11:54:24.560Z,16.45
2018-11-14T11:56:52.487Z,16.53
2018-11-14T11:59:20.428Z,16.88
2018-11-14T12:01:48.291Z,16.88
2018-11-14T12:04:16.252Z,16.80
2018-11-14T12:06:44.192Z,16.72
2018-11-14T12:09:12.678Z,16.05
2018-11-14T12:11:40.587Z,16.13
2018-11-14T12:14:08.948Z,15.92
2018-11-14T12:16:36.891Z,15.77
2018-11-14T12:19:05.077Z,15.65
2018-11-14T12:21:32.940Z,15.70
2018-11-14T12:24:00.831Z,15.72
2018-11-14T12:26:28.751Z,15.74
2018-11-14T12:28:56.651Z,15.91
2018-11-14T12:31:24.536Z,15.94
2018-11-14T12:33:52.443Z,15.83
2018-11-14T12:36:20.331Z,15.91
2018-11-14T12:38:48.259Z,16.27
2018-11-14T12:41:16.118Z,16.34
2018-11-14T12:43:44.003Z,15.98
2018-11-14T12:46:12.052Z,15.87
2018-11-14T12:48:39.936Z,15.67
2018-11-14T12:51:07.872Z,15.64
2018-11-14T12:53:35.820Z,15.84
2018-11-14T12:56:03.731Z,15.83
2018-11-14T12:58:31.936Z,15.93
2018-11-14T13:00:59.852Z,16.00
2018-11-14T13:03:27.785Z,16.08
2018-11-14T13:05:55.687Z,15.97
2018-11-14T13:08:23.629Z,16.01
2018-11-14T13:10:51.515Z,15.72
2018-11-14T13:13:19.419Z,15.79
2018-11-14T13:15:47.335Z,15.76
2018-11-14T13:18:15.280Z,15.71
2018-11-14T13:20:43.176Z,15.82
2018-11-14T13:23:11.087Z,15.83
2018-11-14T13:25:39.006Z,15.91
2018-11-14T13:28:06.898Z,15.86
2018-11-14T13:30:34.827Z,15.86
2018-11-14T13:33:02.736Z,15.85
2018-11-14T13:35:30.616Z,15.49
2018-11-14T13:37:58.511Z,15.48
2018-11-14T13:40:26.440Z,15.62
2018-11-14T13:42:54.346Z,15.60
2018-11-14T13:45:22.296Z,15.55
2018-11-14T13:47:50.199Z,15.46
2018-11-14T13:50:20.432Z,15.37
2018-11-14T13:52:48.168Z,15.38
2018-11-14T13:55:17.290Z,15.22
2018-11-14T13:57:46.455Z,15.24
2018-11-14T14:00:15.454Z,15.31
2018-11-14T14:02:44.156Z,15.32
2018-11-14T14:05:13.664Z,15.44
2018-11-14T14:07:41.556Z,15.36
2018-11-14T14:10:10.615Z,15.38
2018-11-14T14:12:38.502Z,15.33
2018-11-14T14:15:08.771Z,15.31
2018-11-14T14:17:36.660Z,15.38
2018-11-14T14:20:05.515Z,15.30
2018-11-14T14:22:33.428Z,15.27
2018-11-14T14:25:01.352Z,15.29
2018-11-14T14:27:29.268Z,15.23
2018-11-14T14:29:57.199Z,15.30
2018-11-14T14:32:25.148Z,15.18
2018-11-14T14:34:53.065Z,15.18
2018-11-14T14:37:21.037Z,15.17
2018-11-14T14:39:48.912Z,15.11
2018-11-14T14:42:16.839Z,15.07
2018-11-14T14:44:44.736Z,14.97
2018-11-14T14:47:16.404Z,15.02
2018-11-14T14:49:44.381Z,14.92
2018-11-14T14:52:12.315Z,14.88
2018-11-14T14:54:40.252Z,14.68
2018-11-14T14:57:08.179Z,14.64
2018-11-14T14:59:36.095Z,14.55
2018-11-14T15:02:04.052Z,14.50
2018-11-14T15:04:31.995Z,14.48
2018-11-14T15:06:59.930Z,14.45
2018-11-14T15:09:27.886Z,14.39
2018-11-14T15:11:55.794Z,14.25
2018-11-14T15:14:23.715Z,14.17
2018-11-14T15:16:51.631Z,14.01
2018-11-14T15:19:19.536Z,14.02
2018-11-14T15:21:47.489Z,13.98
2018-11-14T15:24:15.713Z,13.90
2018-11-14T15:26:43.731Z,13.74
2018-11-14T15:29:11.699Z,13.64
2018-11-14T15:31:39.679Z,13.60
2018-11-14T15:34:07.976Z,13.57
2018-11-14T15:36:36.584Z,13.48
2018-11-14T15:39:07.180Z,13.46
2018-11-14T15:41:35.120Z,13.39
2018-11-14T15:44:03.044Z,13.38
2018-11-14T15:46:31.011Z,13.30
2018-11-14T15:48:58.979Z,13.20
2018-11-14T15:51:26.990Z,13.12
2018-11-14T15:53:54.883Z,13.07
2018-11-14T15:56:22.815Z,13.05
2018-11-14T15:58:50.727Z,12.97
2018-11-14T16:01:18.640Z,13.00
2018-11-14T16:03:46.588Z,12.86
2018-11-14T16:06:14.487Z,12.86
2018-11-14T16:08:42.447Z,12.81
2018-11-14T16:11:10.363Z,12.82
2018-11-14T16:13:38.268Z,12.71
2018-11-14T16:16:06.210Z,12.61
2018-11-14T16:18:37.615Z,12.55
2018-11-14T16:21:05.684Z,12.53
2018-11-14T16:23:33.600Z,12.39
2018-11-14T16:26:01.541Z,12.35
2018-11-14T16:28:29.456Z,12.24
2018-11-14T16:30:57.412Z,12.17
2018-11-14T16:33:25.355Z,12.18
2018-11-14T16:35:53.295Z,12.11
2018-11-14T16:38:21.287Z,12.01
2018-11-14T16:40:49.159Z,11.94
2018-11-14T16:43:17.083Z,11.97
2018-11-14T16:45:45.021Z,11.91
2018-11-14T16:48:12.987Z,11.86
2018-11-14T16:50:40.914Z,11.77
2018-11-14T16:53:08.841Z,11.84
2018-11-14T16:55:36.879Z,11.77
2018-11-14T16:58:05.331Z,11.78
2018-11-14T17:00:33.328Z,11.72
2018-11-14T17:03:01.311Z,11.57
2018-11-14T17:05:30.415Z,11.60
2018-11-14T17:07:58.331Z,11.57
2018-11-14T17:10:26.271Z,11.48
2018-11-14T17:12:58.552Z,11.44
2018-11-14T17:15:27.068Z,11.41
2018-11-14T17:17:55.036Z,11.32
2018-11-14T17:20:23.303Z,11.32
2018-11-14T17:22:52.210Z,11.28
2018-11-14T17:25:20.249Z,11.24
2018-11-14T17:27:48.568Z,11.13
2018-11-14T17:30:18.046Z,11.08
2018-11-14T17:32:46.031Z,11.05
2018-11-14T17:35:14.729Z,10.97
2018-11-14T17:37:43.487Z,10.95
2018-11-14T17:40:18.852Z,10.91
2018-11-14T17:42:47.599Z,10.87
2018-11-14T17:45:17.659Z,10.80
2018-11-14T17:47:46.010Z,10.80
2018-11-14T17:50:17.347Z,10.72
2018-11-14T17:52:45.552Z,10.66
2018-11-14T17:55:14.465Z,10.62
2018-11-14T17:57:42.713Z,10.58
2018-11-14T18:00:13.223Z,10.50
2018-11-14T18:02:42.155Z,10.41
2018-11-14T18:05:12.315Z,10.37
2018-11-14T18:07:40.500Z,10.45
2018-11-14T18:10:09.823Z,10.38
2018-11-14T18:12:37.990Z,10.37
2018-11-14T18:15:06.761Z,10.32
2018-11-14T18:17:34.697Z,10.12
2018-11-14T18:20:02.685Z,10.05
2018-11-14T18:22:30.626Z,10.02
2018-11-14T18:24:58.591Z,10.05
2018-11-14T18:27:26.547Z,9.90
2018-11-14T18:29:54.542Z,9.89
2018-11-14T18:32:22.403Z,9.93
2018-11-14T18:34:50.331Z,9.72
2018-11-14T18:37:18.299Z,9.83
2018-11-14T18:39:46.291Z,9.74
2018-11-14T18:42:14.187Z,9.66
2018-11-14T18:44:42.219Z,9.56
2018-11-14T18:47:10.210Z,9.59
2018-11-14T18:49:38.220Z,9.56
2018-11-14T18:52:06.519Z,9.48
2018-11-14T18:54:34.531Z,9.47
2018-11-14T18:57:02.500Z,9.51
2018-11-14T18:59:30.436Z,9.47
2018-11-14T19:01:58.388Z,9.50
2018-11-14T19:04:26.360Z,9.47
2018-11-14T19:06:54.317Z,9.42
2018-11-14T19:09:22.272Z,9.38
2018-11-14T19:11:50.198Z,9.42
2018-11-14T19:14:18.135Z,9.44
2018-11-14T19:16:46.137Z,9.45
2018-11-14T19:19:14.179Z,9.36
2018-11-14T19:21:42.015Z,9.28
2018-11-14T19:24:09.987Z,9.36
2018-11-14T19:26:37.955Z,9.28
2018-11-14T19:29:05.931Z,9.27
2018-11-14T19:31:33.856Z,9.16
2018-11-14T19:34:01.867Z,9.16
2018-11-14T19:36:29.782Z,9.13
2018-11-14T19:38:57.744Z,9.20
2018-11-14T19:41:25.691Z,9.26
2018-11-14T19:43:53.699Z,9.29
2018-11-14T19:46:21.678Z,9.24
2018-11-14T19:48:49.592Z,9.23
2018-11-14T19:51:17.516Z,9.18
2018-11-14T19:53:45.479Z,9.17
2018-11-14T19:56:13.412Z,9.15
2018-11-14T19:58:41.401Z,9.17
2018-11-14T20:01:09.408Z,9.09
2018-11-14T20:03:37.360Z,9.17
2018-11-14T20:06:05.380Z,9.11
2018-11-14T20:08:33.356Z,8.93
2018-11-14T20:11:01.300Z,9.07
2018-11-14T20:13:29.249Z,9.18
2018-11-14T20:15:57.218Z,9.09
2018-11-14T20:18:25.173Z,9.08
2018-11-14T20:20:53.110Z,9.13
2018-11-14T20:23:21.051Z,9.07
2018-11-14T20:25:49.160Z,9.13
2018-11-14T20:28:16.981Z,9.04
2018-11-14T20:30:44.997Z,9.08
2018-11-14T20:33:13.696Z,9.10
2018-11-14T20:35:41.727Z,9.04
2018-11-14T20:38:09.838Z,8.91
2018-11-14T20:40:39.206Z,8.95
2018-11-14T20:43:07.443Z,8.97
2018-11-14T20:45:35.515Z,8.87
2018-11-14T20:48:03.431Z,8.96
2018-11-14T20:50:31.372Z,8.88
2018-11-14T20:53:01.843Z,8.88
2018-11-14T20:55:30.353Z,8.86
2018-11-14T20:57:58.599Z,8.83
2018-11-14T21:00:27.898Z,8.84
2018-11-14T21:02:56.221Z,8.88
2018-11-14T21:05:24.769Z,8.88
2018-11-14T21:07:53.015Z,8.80
2018-11-14T21:10:22.310Z,8.81
2018-11-14T21:12:51.983Z,8.80
2018-11-14T21:15:21.363Z,8.81
2018-11-14T21:17:49.950Z,8.79
2018-11-14T21:20:17.886Z,8.90
2018-11-14T21:22:45.846Z,8.88
2018-11-14T21:25:14.943Z,8.90
2018-11-14T21:27:43.864Z,9.02
2018-11-14T21:30:13.349Z,9.07
2018-11-14T21:32:41.645Z,9.12
2018-11-14T21:35:16.138Z,9.14
2018-11-14T21:37:45.060Z,9.17
2018-11-14T21:40:13.304Z,9.24
2018-11-14T21:42:41.308Z,9.33
2018-11-14T21:45:11.403Z,9.44
2018-11-14T21:47:44.685Z,9.40
2018-11-14T21:50:12.597Z,9.40
2018-11-14T21:52:40.596Z,9.51
2018-11-14T21:55:09.448Z,9.59
2018-11-14T21:57:38.191Z,9.70
2018-11-14T22:00:08.811Z,9.67
2018-11-14T22:02:36.750Z,9.67
2018-11-14T22:05:05.185Z,9.82
2018-11-14T22:07:33.129Z,9.78
2018-11-14T22:10:01.073Z,9.86
2018-11-14T22:12:29.023Z,9.86
2018-11-14T22:14:56.935Z,9.88
2018-11-14T22:17:24.872Z,9.88
2018-11-14T22:19:52.829Z,9.94
2018-11-14T22:22:20.796Z,9.95
2018-11-14T22:24:48.771Z,10.01
2018-11-14T22:27:16.734Z,10.07
2018-11-14T22:29:44.643Z,10.05
2018-11-14T22:32:12.575Z,10.05
2018-11-14T22:34:40.596Z,10.10
2018-11-14T22:37:08.486Z,10.12
2018-11-14T22:39:36.407Z,10.13
2018-11-14T22:42:04.351Z,10.22
2018-11-14T22:44:32.270Z,10.24
2018-11-14T22:47:00.253Z,10.24
2018-11-14T22:49:28.179Z,10.27
2018-11-14T22:51:56.120Z,10.30
2018-11-14T22:54:24.036Z,10.34
2018-11-14T22:56:52.040Z,10.35
2018-11-14T22:59:20.007Z,10.34
2018-11-14T23:01:47.968Z,10.51
2018-11-14T23:04:15.903Z,10.54
2018-11-14T23:06:43.843Z,10.50
2018-11-14T23:09:13.167Z,10.41
2018-11-14T23:11:41.551Z,10.45
2018-11-14T23:14:09.519Z,10.53
2018-11-14T23:16:37.450Z,10.56
2018-11-14T23:19:05.784Z,10.59
2018-11-14T23:21:33.818Z,10.57
2018-11-14T23:24:01.828Z,10.68
2018-11-14T23:26:30.299Z,10.66
2018-11-14T23:28:58.266Z,10.64
2018-11-14T23:31:26.168Z,10.59
2018-11-14T23:33:54.190Z,10.56
2018-11-14T23:36:22.126Z,10.60
2018-11-14T23:38:50.026Z,10.55
2018-11-14T23:41:17.955Z,10.52
2018-11-14T23:43:45.892Z,10.53
2018-11-14T23:46:13.848Z,10.53
2018-11-14T23:48:41.772Z,10.57
2018-11-14T23:51:09.720Z,10.51
2018-11-14T23:53:37.622Z,10.65
2018-11-14T23:56:05.720Z,10.64
2018-11-14T23:58:33.634Z,10.50
